F/V Adeline Stephen — FGUF — position and weather

sailwx.info

Track history (hours):
 
Tides and Currents Weather Stations Pressure Air Temp Water Temp Dewpoint Dewpoint Depression Visibility Wind Speed Wind Dir Waves Ship Positions

F/V Adeline Stephen

Last reported at 2015-Jun-10 09:34 UTC. Time now 2015-Jul-03 15:38 UTC.
Position N 47°44' W 003°22'.
Warning: this ship's position is 23 days out of date.

Length 18 m.

Type: Fishing. MMSI: 228929000.

Date/timePositionNaut miles runAvg speedWind from/ knotsBaromVisibWave heightAir tempDewpointWater temp
2015-Jun-10 09:34N 47°44' W 003°22'0 0.0
2015-Jun-10 08:34N 47°44' W 003°22'0 0.0
2015-Jun-10 07:34N 47°44' W 003°22'3 3.0
2015-Jun-10 06:33N 47°41' W 003°24'  
2015-Jun-08 02:26N 47°28' W 004°44'2 0.1
2015-Jun-07 07:04N 47°30' W 004°43'36 8.0
2015-Jun-07 02:32N 47°38' W 003°50'8 8.4
2015-Jun-07 01:33N 47°39' W 003°38'8 8.4
2015-Jun-07 00:33N 47°41' W 003°26'4 3.9
2015-Jun-06 23:34N 47°44' W 003°22'0 0.0
2015-Jun-06 22:33N 47°44' W 003°22'0 0.0
2015-Jun-06 21:33N 47°44' W 003°22'0 0.0
2015-Jun-06 20:33N 47°44' W 003°22'7 6.7
2015-Jun-06 19:33N 47°40' W 003°30'62 1.5
2015-Jun-05 03:12N 47°10' W 004°50'2 2.8
2015-Jun-05 02:28N 47°11' W 004°51'7 2.2
2015-Jun-04 23:31N 47°05' W 004°52'3 2.6
2015-Jun-04 22:16N 47°08' W 004°55'6 0.4
2015-Jun-04 04:26N 47°14' W 004°55'2 1.0
2015-Jun-04 02:19N 47°12' W 004°54'3 0.7
2015-Jun-03 22:31N 47°12' W 004°58'58 5.9
2015-Jun-03 12:33N 47°40' W 003°42'8 7.8
2015-Jun-03 11:33N 47°41' W 003°30'6 6.3
2015-Jun-03 10:33N 47°44' W 003°22'0 0.0
2015-Jun-03 09:33N 47°44' W 003°22'0 0.0
2015-Jun-03 08:33N 47°44' W 003°22'2 0.0
2015-Jun-01 13:33N 47°42' W 003°22'9 8.8
2015-Jun-01 12:33N 47°40' W 003°35'  
Track history (hours):
 
Tides and Currents Weather Stations Pressure Air Temp Water Temp Dewpoint Dewpoint Depression Visibility Wind Speed Wind Dir Waves Ship Positions

F/V Adeline Stephen

Last reported at 2015-Jun-10 09:34 UTC. Time now 2015-Jul-03 15:38 UTC.
Position N 47°44' W 003°22'.
Warning: this ship's position is 23 days out of date.

Length 18 m.

Type: Fishing. MMSI: 228929000.

Date/timePositionNaut miles runAvg speedWind from/ knotsBaromVisibWave heightAir tempDewpointWater temp
2015-Jun-10 09:34N 47°44' W 003°22'0 0.0
2015-Jun-10 08:34N 47°44' W 003°22'0 0.0
2015-Jun-10 07:34N 47°44' W 003°22'3 3.0
2015-Jun-10 06:33N 47°41' W 003°24'  
2015-Jun-08 02:26N 47°28' W 004°44'2 0.1
2015-Jun-07 07:04N 47°30' W 004°43'36 8.0
2015-Jun-07 02:32N 47°38' W 003°50'8 8.4
2015-Jun-07 01:33N 47°39' W 003°38'8 8.4
2015-Jun-07 00:33N 47°41' W 003°26'4 3.9
2015-Jun-06 23:34N 47°44' W 003°22'0 0.0
2015-Jun-06 22:33N 47°44' W 003°22'0 0.0
2015-Jun-06 21:33N 47°44' W 003°22'0 0.0
2015-Jun-06 20:33N 47°44' W 003°22'7 6.7
2015-Jun-06 19:33N 47°40' W 003°30'62 1.5
2015-Jun-05 03:12N 47°10' W 004°50'2 2.8
2015-Jun-05 02:28N 47°11' W 004°51'7 2.2
2015-Jun-04 23:31N 47°05' W 004°52'3 2.6
2015-Jun-04 22:16N 47°08' W 004°55'6 0.4
2015-Jun-04 04:26N 47°14' W 004°55'2 1.0
2015-Jun-04 02:19N 47°12' W 004°54'3 0.7
2015-Jun-03 22:31N 47°12' W 004°58'58 5.9
2015-Jun-03 12:33N 47°40' W 003°42'8 7.8
2015-Jun-03 11:33N 47°41' W 003°30'6 6.3
2015-Jun-03 10:33N 47°44' W 003°22'0 0.0
2015-Jun-03 09:33N 47°44' W 003°22'0 0.0
2015-Jun-03 08:33N 47°44' W 003°22'2 0.0
2015-Jun-01 13:33N 47°42' W 003°22'9 8.8
2015-Jun-01 12:33N 47°40' W 003°35'  

Dump ship's entire track history